createdAt,value
2023-04-08T00:00:06.369Z,504.00
2023-04-08T00:01:06.404Z,507.00
2023-04-08T00:02:06.483Z,504.00
2023-04-08T00:03:06.447Z,506.00
2023-04-08T00:04:06.564Z,505.00
2023-04-08T00:05:06.384Z,503.00
2023-04-08T00:06:06.423Z,500.00
2023-04-08T00:07:06.394Z,499.00
2023-04-08T00:08:06.395Z,494.00
2023-04-08T00:09:06.394Z,492.00
2023-04-08T00:10:06.394Z,492.00
2023-04-08T00:11:06.413Z,494.00
2023-04-08T00:12:06.419Z,494.00
2023-04-08T00:13:06.469Z,493.00
2023-04-08T00:14:06.420Z,491.00
2023-04-08T00:15:06.398Z,492.00
2023-04-08T00:16:06.394Z,493.00
2023-04-08T00:17:06.587Z,496.00
2023-04-08T00:18:06.427Z,496.00
2023-04-08T00:19:06.386Z,496.00
2023-04-08T00:20:06.376Z,497.00
2023-04-08T00:21:06.370Z,497.00
2023-04-08T00:22:06.412Z,500.00
2023-04-08T00:23:06.399Z,490.00
2023-04-08T00:24:06.413Z,491.00
2023-04-08T00:25:06.434Z,493.00
2023-04-08T00:26:06.426Z,487.00
2023-04-08T00:27:06.464Z,488.00
2023-04-08T00:28:06.473Z,490.00
2023-04-08T00:29:06.434Z,490.00
2023-04-08T00:30:06.475Z,492.00
2023-04-08T00:31:06.549Z,495.00
2023-04-08T00:32:06.629Z,496.00
2023-04-08T00:33:06.675Z,494.00
2023-04-08T00:34:06.720Z,495.00
2023-04-08T00:35:06.802Z,494.00
2023-04-08T00:36:06.861Z,493.00
2023-04-08T00:37:06.936Z,491.00
2023-04-08T00:38:06.982Z,488.00
2023-04-08T00:39:07.020Z,487.00
2023-04-08T00:40:07.076Z,484.00
2023-04-08T00:41:07.108Z,488.00
2023-04-08T00:42:07.141Z,485.00
2023-04-08T00:43:07.167Z,484.00
2023-04-08T00:44:07.198Z,485.00
2023-04-08T00:45:07.218Z,486.00
2023-04-08T00:46:07.304Z,493.00
2023-04-08T00:47:07.274Z,484.00
2023-04-08T00:48:07.297Z,486.00
2023-04-08T00:49:07.337Z,487.00
2023-04-08T00:50:07.377Z,487.00
2023-04-08T00:51:07.410Z,488.00
2023-04-08T00:52:07.469Z,491.00
2023-04-08T00:53:07.472Z,491.00
2023-04-08T00:54:07.532Z,491.00
2023-04-08T00:55:07.587Z,494.00
2023-04-08T00:56:07.631Z,494.00
2023-04-08T00:57:07.684Z,493.00
2023-04-08T00:58:07.734Z,491.00
2023-04-08T00:59:07.782Z,481.00
2023-04-08T01:00:07.854Z,489.00
2023-04-08T01:01:07.949Z,490.00
2023-04-08T01:02:08.106Z,494.00
2023-04-08T01:03:08.417Z,493.00
2023-04-08T01:04:08.209Z,492.00
2023-04-08T01:05:08.154Z,495.00
2023-04-08T01:06:08.226Z,496.00
2023-04-08T01:07:08.309Z,496.00
2023-04-08T01:08:08.367Z,498.00
2023-04-08T01:09:08.413Z,496.00
2023-04-08T01:10:08.467Z,499.00
2023-04-08T01:11:08.518Z,500.00
2023-04-08T01:12:08.603Z,501.00
2023-04-08T01:13:08.665Z,503.00
2023-04-08T01:14:08.664Z,506.00
2023-04-08T01:15:08.727Z,506.00
2023-04-08T01:16:08.824Z,506.00
2023-04-08T01:17:08.820Z,507.00
2023-04-08T01:18:08.931Z,507.00
2023-04-08T01:19:08.954Z,509.00
2023-04-08T01:20:09.019Z,509.00
2023-04-08T01:21:09.060Z,509.00
2023-04-08T01:22:09.122Z,510.00
2023-04-08T01:23:09.215Z,512.00
2023-04-08T01:24:09.259Z,512.00
2023-04-08T01:25:09.320Z,512.00
2023-04-08T01:26:09.370Z,509.00
2023-04-08T01:27:09.424Z,508.00
2023-04-08T01:28:09.470Z,508.00
2023-04-08T01:29:09.507Z,506.00
2023-04-08T01:30:09.558Z,507.00
2023-04-08T01:31:09.607Z,506.00
2023-04-08T01:32:09.682Z,505.00
2023-04-08T01:33:09.701Z,503.00
2023-04-08T01:34:09.785Z,502.00
2023-04-08T01:35:09.810Z,502.00
2023-04-08T01:36:09.838Z,501.00
2023-04-08T01:37:09.855Z,503.00
2023-04-08T01:38:09.867Z,505.00
2023-04-08T01:39:09.919Z,506.00
2023-04-08T01:40:09.924Z,507.00
2023-04-08T01:41:09.951Z,506.00
2023-04-08T01:42:10.026Z,505.00
2023-04-08T01:43:10.017Z,502.00
2023-04-08T01:44:10.052Z,502.00
2023-04-08T01:45:10.108Z,504.00
2023-04-08T01:46:10.210Z,503.00
2023-04-08T01:47:10.277Z,503.00
2023-04-08T01:48:10.305Z,501.00
2023-04-08T01:49:10.364Z,499.00
2023-04-08T01:50:10.443Z,502.00
2023-04-08T01:51:10.468Z,501.00
2023-04-08T01:52:10.574Z,503.00
2023-04-08T01:53:10.564Z,504.00
2023-04-08T01:54:10.615Z,503.00
2023-04-08T01:55:10.680Z,504.00
2023-04-08T01:56:10.706Z,498.00
2023-04-08T01:57:10.754Z,493.00
2023-04-08T01:58:10.812Z,498.00
2023-04-08T01:59:10.880Z,498.00
2023-04-08T02:00:10.932Z,498.00
2023-04-08T02:01:10.992Z,498.00
2023-04-08T02:02:11.146Z,498.00
2023-04-08T02:03:11.269Z,500.00
2023-04-08T02:04:11.347Z,490.00
2023-04-08T02:05:11.179Z,494.00
2023-04-08T02:06:11.218Z,496.00
2023-04-08T02:07:11.198Z,497.00
2023-04-08T02:08:11.190Z,499.00
2023-04-08T02:09:11.192Z,501.00
2023-04-08T02:10:11.213Z,500.00
2023-04-08T02:11:11.247Z,498.00
2023-04-08T02:12:11.298Z,496.00
2023-04-08T02:13:11.333Z,495.00
2023-04-08T02:14:11.412Z,495.00
2023-04-08T02:15:11.416Z,501.00
2023-04-08T02:16:11.479Z,505.00
2023-04-08T02:17:11.460Z,508.00
2023-04-08T02:18:11.554Z,510.00
2023-04-08T02:19:11.529Z,513.00
2023-04-08T02:20:11.588Z,515.00
2023-04-08T02:21:11.671Z,517.00
2023-04-08T02:22:11.733Z,516.00
2023-04-08T02:23:11.772Z,513.00
2023-04-08T02:24:11.809Z,509.00
2023-04-08T02:25:11.888Z,508.00
2023-04-08T02:26:11.931Z,500.00
2023-04-08T02:27:11.980Z,504.00
2023-04-08T02:28:12.041Z,504.00
2023-04-08T02:29:12.082Z,502.00
2023-04-08T02:30:12.149Z,502.00
2023-04-08T02:31:13.399Z,504.00
2023-04-08T02:32:12.293Z,501.00
2023-04-08T02:33:12.425Z,502.00
2023-04-08T02:34:12.366Z,502.00
2023-04-08T02:35:12.374Z,501.00
2023-04-08T02:36:12.396Z,502.00
2023-04-08T02:37:12.417Z,504.00
2023-04-08T02:38:12.559Z,503.00
2023-04-08T02:39:12.476Z,503.00
2023-04-08T02:40:12.524Z,502.00
2023-04-08T02:41:12.566Z,501.00
2023-04-08T02:42:12.613Z,500.00
2023-04-08T02:43:12.682Z,502.00
2023-04-08T02:44:12.682Z,500.00
2023-04-08T02:45:12.733Z,501.00
2023-04-08T02:46:12.780Z,498.00
2023-04-08T02:47:12.736Z,496.00
2023-04-08T02:48:12.800Z,497.00
2023-04-08T02:49:12.850Z,498.00
2023-04-08T02:50:12.905Z,498.00
2023-04-08T02:51:12.972Z,499.00
2023-04-08T02:52:13.024Z,499.00
2023-04-08T02:53:13.072Z,499.00
2023-04-08T02:54:13.236Z,503.00
2023-04-08T02:55:13.161Z,502.00
2023-04-08T02:56:13.177Z,502.00
2023-04-08T02:57:13.233Z,505.00
2023-04-08T02:58:13.309Z,502.00
2023-04-08T02:59:13.394Z,501.00
2023-04-08T03:00:13.479Z,502.00
2023-04-08T03:01:13.581Z,499.00
2023-04-08T03:02:13.706Z,498.00
2023-04-08T03:03:13.801Z,500.00
2023-04-08T03:04:13.755Z,500.00
2023-04-08T03:05:13.798Z,501.00
2023-04-08T03:06:13.816Z,502.00
2023-04-08T03:07:13.851Z,504.00
2023-04-08T03:08:13.886Z,505.00
2023-04-08T03:09:13.898Z,502.00
2023-04-08T03:10:13.945Z,499.00
2023-04-08T03:11:13.928Z,504.00
2023-04-08T03:12:13.995Z,501.00
2023-04-08T03:13:14.067Z,502.00
2023-04-08T03:14:14.088Z,505.00
2023-04-08T03:15:14.145Z,505.00
2023-04-08T03:16:14.229Z,503.00
2023-04-08T03:17:14.183Z,504.00
2023-04-08T03:18:14.233Z,504.00
2023-04-08T03:19:14.228Z,504.00
2023-04-08T03:20:14.231Z,502.00
2023-04-08T03:21:14.230Z,501.00
2023-04-08T03:22:14.244Z,502.00
2023-04-08T03:23:14.264Z,507.00
2023-04-08T03:24:14.309Z,511.00
2023-04-08T03:25:14.353Z,500.00
2023-04-08T03:26:14.428Z,505.00
2023-04-08T03:27:14.459Z,504.00
2023-04-08T03:28:14.475Z,506.00
2023-04-08T03:29:21.174Z,507.00
2023-04-08T03:30:14.578Z,508.00
2023-04-08T03:31:14.618Z,504.00
2023-04-08T03:32:14.660Z,503.00
2023-04-08T03:33:14.701Z,502.00
2023-04-08T03:34:14.729Z,499.00
2023-04-08T03:35:14.762Z,499.00
2023-04-08T03:36:14.783Z,501.00
2023-04-08T03:37:14.803Z,502.00
2023-04-08T03:38:14.822Z,493.00
2023-04-08T03:39:14.844Z,498.00
2023-04-08T03:40:14.863Z,509.00
2023-04-08T03:41:14.889Z,509.00
2023-04-08T03:42:14.940Z,506.00
2023-04-08T03:43:14.901Z,505.00
2023-04-08T03:44:14.932Z,506.00
2023-04-08T03:45:14.969Z,508.00
2023-04-08T03:46:15.012Z,500.00
2023-04-08T03:47:15.018Z,508.00
2023-04-08T03:48:15.041Z,512.00
2023-04-08T03:49:15.067Z,511.00
2023-04-08T03:50:15.093Z,514.00
2023-04-08T03:51:15.192Z,512.00
2023-04-08T03:52:15.286Z,509.00
2023-04-08T03:53:15.373Z,506.00
2023-04-08T03:54:15.458Z,508.00
2023-04-08T03:55:15.525Z,503.00
2023-04-08T03:56:15.597Z,506.00
2023-04-08T03:57:15.661Z,510.00
2023-04-08T03:58:15.768Z,512.00
2023-04-08T03:59:15.832Z,514.00
2023-04-08T04:00:15.954Z,514.00
2023-04-08T04:01:15.962Z,514.00
2023-04-08T04:02:16.177Z,516.00
2023-04-08T04:03:16.293Z,515.00
2023-04-08T04:04:16.504Z,513.00
2023-04-08T04:05:16.395Z,514.00
2023-04-08T04:06:16.536Z,516.00
2023-04-08T04:07:16.551Z,514.00
2023-04-08T04:08:16.614Z,516.00
2023-04-08T04:09:16.669Z,509.00
2023-04-08T04:10:16.703Z,513.00
2023-04-08T04:11:16.776Z,512.00
2023-04-08T04:12:16.868Z,513.00
2023-04-08T04:13:16.961Z,513.00
2023-04-08T04:14:17.035Z,510.00
2023-04-08T04:15:17.056Z,511.00
2023-04-08T04:16:17.160Z,510.00
2023-04-08T04:17:17.147Z,510.00
2023-04-08T04:18:17.228Z,503.00
2023-04-08T04:19:17.254Z,503.00
2023-04-08T04:20:17.288Z,504.00
2023-04-08T04:21:17.353Z,506.00
2023-04-08T04:22:17.441Z,507.00
2023-04-08T04:23:17.530Z,503.00
2023-04-08T04:24:17.565Z,502.00
2023-04-08T04:25:17.655Z,503.00
2023-04-08T04:26:17.674Z,503.00
2023-04-08T04:27:17.795Z,505.00
2023-04-08T04:28:17.793Z,509.00
2023-04-08T04:29:17.837Z,509.00
2023-04-08T04:30:17.920Z,511.00
2023-04-08T04:31:17.972Z,512.00
2023-04-08T04:32:18.009Z,512.00
2023-04-08T04:33:18.081Z,512.00
2023-04-08T04:34:18.155Z,513.00
2023-04-08T04:35:18.322Z,513.00
2023-04-08T04:36:18.302Z,514.00
2023-04-08T04:37:18.352Z,516.00
2023-04-08T04:38:18.420Z,516.00
2023-04-08T04:39:18.444Z,516.00
2023-04-08T04:40:18.480Z,516.00
2023-04-08T04:41:18.538Z,515.00
2023-04-08T04:42:18.543Z,516.00
2023-04-08T04:43:18.572Z,514.00
2023-04-08T04:44:18.599Z,513.00
2023-04-08T04:45:18.625Z,517.00
2023-04-08T04:46:18.764Z,522.00
2023-04-08T04:47:18.730Z,525.00
2023-04-08T04:48:18.785Z,524.00
2023-04-08T04:49:18.834Z,529.00
2023-04-08T04:50:18.884Z,527.00
2023-04-08T04:51:18.921Z,522.00
2023-04-08T04:52:18.960Z,520.00
2023-04-08T04:53:19.005Z,519.00
2023-04-08T04:54:19.047Z,518.00
2023-04-08T04:55:19.089Z,514.00
2023-04-08T04:56:19.128Z,515.00
2023-04-08T04:57:19.161Z,514.00
2023-04-08T04:58:19.192Z,514.00
2023-04-08T04:59:19.215Z,512.00
2023-04-08T05:00:19.248Z,514.00
2023-04-08T05:01:19.297Z,515.00
2023-04-08T05:02:19.447Z,515.00
2023-04-08T05:03:19.439Z,515.00
2023-04-08T05:04:19.381Z,514.00
2023-04-08T05:05:19.506Z,513.00
2023-04-08T05:06:19.480Z,512.00
2023-04-08T05:07:19.540Z,512.00
2023-04-08T05:08:19.573Z,511.00
2023-04-08T05:09:19.606Z,511.00
2023-04-08T05:10:19.667Z,510.00
2023-04-08T05:11:19.704Z,510.00
2023-04-08T05:12:19.768Z,511.00
2023-04-08T05:13:19.804Z,512.00
2023-04-08T05:14:19.831Z,511.00
2023-04-08T05:15:19.851Z,509.00
2023-04-08T05:16:19.919Z,510.00
2023-04-08T05:17:19.936Z,511.00
2023-04-08T05:18:19.958Z,512.00
2023-04-08T05:19:19.952Z,512.00
2023-04-08T05:20:19.982Z,510.00
2023-04-08T05:21:20.007Z,512.00
2023-04-08T05:22:20.046Z,517.00
2023-04-08T05:23:20.063Z,519.00
2023-04-08T05:24:20.093Z,518.00
2023-04-08T05:25:20.137Z,521.00
2023-04-08T05:26:20.445Z,521.00
2023-04-08T05:27:20.232Z,521.00
2023-04-08T05:28:20.277Z,503.00
2023-04-08T05:29:20.344Z,519.00
2023-04-08T05:30:20.404Z,518.00
2023-04-08T05:31:20.536Z,521.00
2023-04-08T05:32:20.600Z,522.00
2023-04-08T05:33:20.691Z,516.00
2023-04-08T05:34:20.799Z,510.00
2023-04-08T05:35:20.867Z,509.00
2023-04-08T05:36:20.908Z,510.00
2023-04-08T05:37:20.941Z,510.00
2023-04-08T05:38:20.989Z,512.00
2023-04-08T05:39:21.034Z,513.00
2023-04-08T05:40:21.058Z,517.00
2023-04-08T05:41:21.087Z,516.00
2023-04-08T05:42:21.123Z,514.00
2023-04-08T05:43:21.154Z,515.00
2023-04-08T05:44:21.198Z,516.00
2023-04-08T05:45:21.248Z,516.00
2023-04-08T05:46:21.333Z,516.00
2023-04-08T05:47:21.381Z,519.00
2023-04-08T05:48:21.386Z,523.00
2023-04-08T05:49:21.417Z,525.00
2023-04-08T05:50:21.439Z,528.00
2023-04-08T05:51:21.451Z,525.00
2023-04-08T05:52:21.427Z,525.00
2023-04-08T05:53:21.459Z,525.00
2023-04-08T05:54:21.464Z,523.00
2023-04-08T05:55:21.493Z,523.00
2023-04-08T05:56:21.570Z,522.00
2023-04-08T05:57:21.562Z,521.00
2023-04-08T05:58:21.639Z,520.00
2023-04-08T05:59:21.697Z,522.00
2023-04-08T06:00:21.792Z,523.00
2023-04-08T06:01:21.844Z,521.00
2023-04-08T06:02:22.073Z,522.00
2023-04-08T06:03:22.280Z,522.00
2023-04-08T06:04:22.018Z,525.00
2023-04-08T06:05:21.977Z,526.00
2023-04-08T06:06:22.043Z,523.00
2023-04-08T06:07:22.063Z,523.00
2023-04-08T06:08:22.115Z,524.00
2023-04-08T06:09:22.157Z,521.00
2023-04-08T06:10:22.246Z,520.00
2023-04-08T06:11:22.339Z,519.00
2023-04-08T06:12:22.412Z,522.00
2023-04-08T06:13:22.501Z,519.00
2023-04-08T06:14:22.564Z,526.00
2023-04-08T06:15:22.618Z,528.00
2023-04-08T06:16:22.791Z,526.00
2023-04-08T06:17:22.774Z,528.00
2023-04-08T06:18:22.790Z,528.00
2023-04-08T06:19:22.812Z,527.00
2023-04-08T06:20:22.819Z,527.00
2023-04-08T06:21:22.828Z,526.00
2023-04-08T06:22:22.871Z,522.00
2023-04-08T06:23:22.855Z,521.00
2023-04-08T06:24:23.054Z,522.00
2023-04-08T06:25:22.885Z,521.00
2023-04-08T06:26:22.907Z,522.00
2023-04-08T06:27:23.596Z,522.00
2023-04-08T06:28:22.943Z,520.00
2023-04-08T06:29:23.015Z,519.00
2023-04-08T06:30:23.045Z,519.00
2023-04-08T06:31:23.149Z,518.00
2023-04-08T06:32:23.195Z,516.00
2023-04-08T06:33:23.233Z,514.00
2023-04-08T06:34:23.300Z,519.00
2023-04-08T06:35:23.368Z,518.00
2023-04-08T06:36:23.413Z,518.00
2023-04-08T06:37:23.460Z,519.00
2023-04-08T06:38:23.793Z,516.00
2023-04-08T06:39:23.554Z,517.00
2023-04-08T06:40:23.591Z,516.00
2023-04-08T06:41:23.594Z,515.00
2023-04-08T06:42:23.614Z,515.00
2023-04-08T06:43:23.614Z,514.00
2023-04-08T06:44:23.618Z,516.00
2023-04-08T06:45:24.455Z,517.00
2023-04-08T06:46:23.669Z,514.00
2023-04-08T06:47:23.665Z,512.00
2023-04-08T06:48:23.609Z,514.00
2023-04-08T06:49:23.623Z,515.00
2023-04-08T06:50:23.631Z,511.00
2023-04-08T06:51:23.659Z,511.00
2023-04-08T06:52:23.654Z,510.00
2023-04-08T06:53:23.663Z,512.00
2023-04-08T06:54:23.690Z,514.00
2023-04-08T06:55:23.681Z,515.00
2023-04-08T06:56:23.735Z,514.00
2023-04-08T06:57:23.712Z,516.00
2023-04-08T06:58:23.717Z,523.00
2023-04-08T06:59:23.778Z,522.00
2023-04-08T07:00:23.820Z,517.00
2023-04-08T07:01:24.028Z,513.00
2023-04-08T07:02:23.983Z,509.00
2023-04-08T07:03:24.184Z,515.00
2023-04-08T07:04:24.066Z,516.00
2023-04-08T07:05:24.074Z,513.00
2023-04-08T07:06:24.051Z,511.00
2023-04-08T07:07:24.150Z,513.00
2023-04-08T07:08:24.172Z,517.00
2023-04-08T07:09:24.228Z,517.00
2023-04-08T07:10:24.389Z,516.00
2023-04-08T07:11:24.366Z,509.00
2023-04-08T07:12:24.411Z,520.00
2023-04-08T07:13:24.450Z,518.00
2023-04-08T07:14:24.471Z,513.00
2023-04-08T07:15:24.509Z,514.00
2023-04-08T07:16:24.567Z,515.00
2023-04-08T07:17:24.556Z,511.00
2023-04-08T07:18:24.566Z,512.00
2023-04-08T07:19:24.613Z,515.00
2023-04-08T07:20:24.643Z,513.00
2023-04-08T07:21:24.610Z,511.00
2023-04-08T07:22:24.630Z,513.00
2023-04-08T07:23:24.655Z,509.00
2023-04-08T07:24:24.690Z,509.00
2023-04-08T07:25:24.746Z,508.00
2023-04-08T07:26:24.829Z,507.00
2023-04-08T07:27:24.802Z,507.00
2023-04-08T07:28:24.856Z,508.00
2023-04-08T07:29:24.841Z,508.00
2023-04-08T07:30:24.902Z,509.00
2023-04-08T07:31:24.995Z,508.00
2023-04-08T07:32:24.892Z,508.00
2023-04-08T07:33:24.809Z,508.00
2023-04-08T07:34:24.785Z,509.00
2023-04-08T07:35:24.835Z,508.00
2023-04-08T07:36:24.772Z,506.00
2023-04-08T07:37:24.739Z,505.00
2023-04-08T07:38:24.762Z,505.00
2023-04-08T07:39:24.786Z,503.00
2023-04-08T07:40:24.907Z,506.00
2023-04-08T07:41:24.822Z,508.00
2023-04-08T07:42:24.854Z,509.00
2023-04-08T07:43:24.892Z,510.00
2023-04-08T07:44:24.831Z,510.00
2023-04-08T07:45:24.877Z,509.00
2023-04-08T07:46:24.937Z,506.00
2023-04-08T07:47:24.860Z,510.00
2023-04-08T07:48:24.811Z,512.00
2023-04-08T07:49:24.841Z,505.00
2023-04-08T07:50:24.863Z,510.00
2023-04-08T07:51:24.860Z,510.00
2023-04-08T07:52:24.870Z,508.00
2023-04-08T07:53:24.853Z,504.00
2023-04-08T07:54:24.880Z,506.00
2023-04-08T07:55:24.947Z,507.00
2023-04-08T07:56:24.916Z,505.00
2023-04-08T07:57:24.920Z,505.00
2023-04-08T07:58:25.013Z,503.00
2023-04-08T07:59:24.890Z,500.00
2023-04-08T08:00:24.873Z,498.00
2023-04-08T08:01:25.475Z,496.00
2023-04-08T08:02:24.915Z,498.00
2023-04-08T08:03:25.072Z,499.00
2023-04-08T08:04:25.000Z,496.00
2023-04-08T08:05:24.807Z,496.00
2023-04-08T08:06:24.674Z,496.00
2023-04-08T08:07:24.659Z,499.00
2023-04-08T08:08:24.652Z,500.00
2023-04-08T08:09:24.634Z,489.00
2023-04-08T08:10:24.624Z,496.00
2023-04-08T08:11:24.614Z,496.00
2023-04-08T08:12:24.614Z,496.00
2023-04-08T08:13:24.615Z,495.00
2023-04-08T08:14:24.626Z,496.00
2023-04-08T08:15:24.577Z,496.00
2023-04-08T08:16:24.598Z,470.00
2023-04-08T08:17:26.357Z,484.00
2023-04-08T08:18:24.479Z,498.00
2023-04-08T08:19:24.428Z,495.00
2023-04-08T08:20:24.344Z,486.00
2023-04-08T08:21:24.282Z,490.00
2023-04-08T08:22:24.201Z,489.00
2023-04-08T08:23:24.139Z,492.00
2023-04-08T08:24:24.078Z,494.00
2023-04-08T08:25:25.971Z,495.00
2023-04-08T08:26:23.938Z,492.00
2023-04-08T08:27:23.881Z,491.00
2023-04-08T08:28:23.803Z,492.00
2023-04-08T08:29:23.744Z,489.00
2023-04-08T08:30:23.699Z,494.00
2023-04-08T08:31:23.660Z,495.00
2023-04-08T08:32:23.532Z,490.00
2023-04-08T08:33:23.448Z,493.00
2023-04-08T08:34:23.376Z,497.00
2023-04-08T08:35:23.302Z,504.00
2023-04-08T08:36:23.240Z,491.00
2023-04-08T08:37:23.166Z,491.00
2023-04-08T08:38:23.120Z,498.00
2023-04-08T08:39:23.030Z,495.00
2023-04-08T08:40:22.959Z,491.00
2023-04-08T08:41:22.912Z,495.00
2023-04-08T08:42:22.834Z,494.00
2023-04-08T08:43:22.769Z,487.00
2023-04-08T08:44:22.707Z,486.00
2023-04-08T08:45:22.637Z,487.00
2023-04-08T08:46:22.648Z,485.00
2023-04-08T08:47:22.526Z,487.00
2023-04-08T08:48:22.451Z,488.00
2023-04-08T08:49:22.371Z,480.00
2023-04-08T08:50:22.304Z,485.00
2023-04-08T08:51:22.241Z,482.00
2023-04-08T08:52:22.167Z,488.00
2023-04-08T08:53:22.100Z,471.00
2023-04-08T08:54:22.037Z,485.00
2023-04-08T08:55:41.463Z,486.00
2023-04-08T08:56:21.871Z,487.00
2023-04-08T08:57:21.799Z,488.00
2023-04-08T08:58:21.743Z,493.00
2023-04-08T08:59:21.646Z,495.00
2023-04-08T09:00:21.578Z,495.00
2023-04-08T09:01:21.509Z,492.00
2023-04-08T09:02:21.572Z,491.00
2023-04-08T09:03:21.668Z,491.00
2023-04-08T09:04:21.370Z,490.00
2023-04-08T09:05:21.326Z,491.00
2023-04-08T09:06:21.072Z,493.00
2023-04-08T09:07:20.998Z,490.00
2023-04-08T09:08:20.926Z,491.00
2023-04-08T09:09:20.847Z,490.00
2023-04-08T09:10:20.768Z,489.00
2023-04-08T09:11:20.707Z,491.00
2023-04-08T09:12:20.646Z,491.00
2023-04-08T09:13:20.568Z,481.00
2023-04-08T09:14:20.496Z,487.00
2023-04-08T09:15:20.431Z,491.00
2023-04-08T09:16:20.437Z,493.00
2023-04-08T09:17:20.285Z,492.00
2023-04-08T09:18:20.238Z,490.00
2023-04-08T09:19:20.146Z,491.00
2023-04-08T09:20:20.081Z,488.00
2023-04-08T09:21:20.005Z,490.00
2023-04-08T09:22:19.924Z,491.00
2023-04-08T09:23:19.842Z,492.00
2023-04-08T09:24:19.778Z,492.00
2023-04-08T09:25:19.710Z,494.00
2023-04-08T09:26:19.681Z,492.00
2023-04-08T09:27:19.565Z,492.00
2023-04-08T09:28:19.501Z,487.00
2023-04-08T09:29:26.241Z,486.00
2023-04-08T09:30:19.373Z,486.00
2023-04-08T09:31:19.303Z,487.00
2023-04-08T09:32:19.203Z,486.00
2023-04-08T09:33:19.130Z,483.00
2023-04-08T09:34:19.097Z,483.00
2023-04-08T09:35:18.986Z,486.00
2023-04-08T09:36:18.920Z,481.00
2023-04-08T09:37:18.829Z,479.00
2023-04-08T09:38:18.754Z,479.00
2023-04-08T09:39:18.676Z,478.00
2023-04-08T09:40:18.622Z,476.00
2023-04-08T09:41:18.536Z,478.00
2023-04-08T09:42:18.451Z,485.00
2023-04-08T09:43:18.380Z,485.00
2023-04-08T09:44:18.302Z,483.00
2023-04-08T09:45:18.224Z,480.00
2023-04-08T09:46:18.203Z,478.00
2023-04-08T09:47:18.089Z,480.00
2023-04-08T09:48:18.021Z,482.00
2023-04-08T09:49:17.941Z,481.00
2023-04-08T09:50:17.890Z,482.00
2023-04-08T09:51:17.798Z,484.00
2023-04-08T09:52:17.755Z,484.00
2023-04-08T09:53:17.669Z,485.00
2023-04-08T09:54:17.591Z,483.00
2023-04-08T09:55:17.529Z,482.00
2023-04-08T09:56:17.455Z,483.00
2023-04-08T09:57:17.368Z,483.00
2023-04-08T09:58:17.305Z,485.00
2023-04-08T09:59:17.227Z,462.00
2023-04-08T10:00:17.213Z,484.00
2023-04-08T10:01:17.200Z,489.00
2023-04-08T10:02:17.063Z,486.00
2023-04-08T10:03:17.192Z,485.00
2023-04-08T10:04:16.937Z,485.00
2023-04-08T10:05:16.771Z,481.00
2023-04-08T10:06:16.745Z,469.00
2023-04-08T10:07:16.655Z,418.00
2023-04-08T10:08:16.633Z,457.00
2023-04-08T10:09:16.582Z,465.00
2023-04-08T10:10:16.639Z,443.00
2023-04-08T10:11:16.526Z,488.00
2023-04-08T10:12:16.516Z,481.00
2023-04-08T10:13:16.492Z,476.00
2023-04-08T10:14:16.483Z,465.00
2023-04-08T10:15:16.514Z,462.00
2023-04-08T10:16:16.566Z,470.00
2023-04-08T10:17:16.597Z,470.00
2023-04-08T10:18:16.643Z,456.00
2023-04-08T10:19:16.653Z,505.00
2023-04-08T10:20:16.672Z,465.00
2023-04-08T10:21:16.686Z,481.00
2023-04-08T10:22:16.730Z,480.00
2023-04-08T10:23:16.766Z,489.00
2023-04-08T10:24:16.773Z,481.00
2023-04-08T10:25:16.865Z,475.00
2023-04-08T10:26:16.815Z,486.00
2023-04-08T10:27:15.836Z,473.00
2023-04-08T10:28:16.895Z,476.00
2023-04-08T10:29:16.936Z,488.00
2023-04-08T10:30:17.005Z,482.00
2023-04-08T10:31:17.008Z,481.00
2023-04-08T10:32:17.033Z,483.00
2023-04-08T10:33:17.048Z,481.00
2023-04-08T10:34:17.093Z,483.00
2023-04-08T10:35:17.143Z,480.00
2023-04-08T10:36:17.204Z,486.00
2023-04-08T10:37:17.234Z,482.00
2023-04-08T10:38:17.301Z,482.00
2023-04-08T10:39:17.320Z,480.00
2023-04-08T10:40:17.391Z,479.00
2023-04-08T10:41:17.415Z,488.00
2023-04-08T10:42:17.468Z,472.00
2023-04-08T10:43:18.014Z,465.00
2023-04-08T10:44:17.519Z,480.00
2023-04-08T10:45:17.538Z,482.00
2023-04-08T10:46:17.647Z,483.00
2023-04-08T10:47:17.688Z,488.00
2023-04-08T10:48:17.722Z,490.00
2023-04-08T10:49:17.765Z,490.00
2023-04-08T10:50:17.774Z,484.00
2023-04-08T10:51:17.796Z,482.00
2023-04-08T10:52:17.847Z,484.00
2023-04-08T10:53:17.890Z,488.00
2023-04-08T10:54:18.061Z,484.00
2023-04-08T10:55:17.984Z,486.00
2023-04-08T10:56:18.012Z,488.00
2023-04-08T10:57:18.127Z,487.00
2023-04-08T10:58:18.105Z,489.00
2023-04-08T10:59:18.161Z,491.00
2023-04-08T11:00:18.230Z,490.00
2023-04-08T11:01:18.504Z,496.00
2023-04-08T11:02:18.524Z,501.00
2023-04-08T11:03:18.599Z,500.00
2023-04-08T11:04:18.522Z,499.00
2023-04-08T11:05:18.499Z,493.00
2023-04-08T11:06:18.573Z,491.00
2023-04-08T11:07:18.625Z,488.00
2023-04-08T11:08:20.534Z,480.00
2023-04-08T11:09:18.707Z,489.00
2023-04-08T11:10:18.761Z,491.00
2023-04-08T11:11:18.784Z,492.00
2023-04-08T11:12:18.817Z,494.00
2023-04-08T11:13:18.803Z,495.00
2023-04-08T11:14:18.811Z,496.00
2023-04-08T11:15:18.837Z,495.00
2023-04-08T11:16:18.952Z,497.00
2023-04-08T11:17:18.921Z,496.00
2023-04-08T11:18:18.973Z,483.00
2023-04-08T11:19:19.003Z,491.00
2023-04-08T11:20:19.068Z,490.00
2023-04-08T11:21:19.108Z,456.00
2023-04-08T11:22:19.148Z,494.00
2023-04-08T11:23:19.212Z,482.00
2023-04-08T11:24:19.273Z,499.00
2023-04-08T11:25:19.351Z,501.00
2023-04-08T11:26:19.434Z,492.00
2023-04-08T11:27:19.491Z,483.00
2023-04-08T11:28:19.567Z,486.00
2023-04-08T11:29:19.647Z,500.00
2023-04-08T11:30:19.742Z,498.00
2023-04-08T11:31:21.170Z,496.00
2023-04-08T11:32:19.912Z,494.00
2023-04-08T11:33:19.985Z,493.00
2023-04-08T11:34:20.089Z,510.00
2023-04-08T11:35:20.185Z,501.00
2023-04-08T11:36:20.267Z,498.00
2023-04-08T11:37:20.360Z,498.00
2023-04-08T11:38:20.423Z,496.00
2023-04-08T11:39:20.504Z,498.00
2023-04-08T11:40:20.594Z,498.00
2023-04-08T11:41:20.656Z,497.00
2023-04-08T11:42:20.767Z,499.00
2023-04-08T11:43:20.816Z,498.00
2023-04-08T11:44:20.907Z,500.00
2023-04-08T11:45:20.990Z,492.00
2023-04-08T11:46:21.107Z,499.00
2023-04-08T11:47:21.152Z,496.00
2023-04-08T11:48:21.262Z,503.00
2023-04-08T11:49:21.316Z,501.00
2023-04-08T11:50:21.410Z,503.00
2023-04-08T11:51:21.530Z,501.00
2023-04-08T11:52:21.611Z,500.00
2023-04-08T11:53:21.762Z,503.00
2023-04-08T11:54:21.848Z,508.00
2023-04-08T11:55:21.959Z,510.00
2023-04-08T11:56:22.063Z,498.00
2023-04-08T11:57:22.181Z,500.00
2023-04-08T11:58:22.313Z,499.00
2023-04-08T11:59:22.421Z,497.00
2023-04-08T12:00:22.545Z,498.00
2023-04-08T12:01:22.647Z,500.00
2023-04-08T12:02:23.001Z,500.00
2023-04-08T12:03:22.889Z,501.00
2023-04-08T12:04:23.038Z,499.00
2023-04-08T12:05:23.076Z,499.00
2023-04-08T12:06:23.126Z,500.00
2023-04-08T12:07:23.227Z,496.00
2023-04-08T12:08:23.879Z,495.00
2023-04-08T12:09:23.362Z,488.00
2023-04-08T12:10:23.435Z,500.00
2023-04-08T12:11:23.547Z,502.00
2023-04-08T12:12:23.634Z,504.00
2023-04-08T12:13:23.724Z,508.00
2023-04-08T12:14:24.150Z,508.00
2023-04-08T12:15:23.905Z,509.00
2023-04-08T12:16:24.046Z,506.00
2023-04-08T12:17:24.123Z,503.00
2023-04-08T12:18:24.220Z,505.00
2023-04-08T12:19:24.317Z,503.00
2023-04-08T12:20:24.428Z,498.00
2023-04-08T12:21:24.501Z,505.00
2023-04-08T12:22:24.613Z,502.00
2023-04-08T12:23:24.733Z,502.00
2023-04-08T12:24:24.817Z,503.00
2023-04-08T12:25:24.920Z,496.00
2023-04-08T12:26:25.103Z,505.00
2023-04-08T12:27:25.119Z,504.00
2023-04-08T12:28:25.200Z,508.00